WTTO2: Illinois River, Watts, OK

                                SHEF ID:       WTTO2     Illinois River near Watts, OK
STATION TYPE: Stream Gauge
Regulating: Stage = 13.00, Flow = 11165

PRECIP STAGE STAGE(2) RIV-FLOW WTR-TEMP VOLTAGE BAT-LOAD
in ft ft cfs F volt volt
Ccp-Rev Ccp-Rev Ccp-Rev Ccp-Rev Ccp-Rev Ccp-Rev Ccp-Rev
(America/Chicago)
04/25 00:00 0.00 8.10 ---- 4302 64.63 ---- 12.80
04/25 01:00 0.00 7.73 ---- 3902 64.58 ---- 12.77
04/25 02:00 0.00 7.44 ---- 3602 64.53 ---- 12.73
04/25 03:00 0.00 7.19 ---- 3345 64.44 ---- 12.71
04/25 04:00 0.00 6.98 ---- 3127 64.36 ---- 12.69
04/25 05:00 0.00 6.80 ---- 2944 64.26 ---- 12.67
04/25 06:00 0.00 6.64 ---- 2780 64.13 ---- 12.65
04/25 07:00 0.00 6.49 ---- 2629 64.02 ---- 12.63
04/25 08:00 0.00 6.35 ---- 2491 63.99 ---- 12.94
04/25 09:00 0.00 6.23 ---- 2375 64.02 ---- 13.57
04/25 10:00 0.00 6.12 ---- 2270 64.24 ---- 13.57
04/25 11:00 0.00 6.02 ---- 2178 64.62 ---- 13.65
04/25 12:00 0.00 5.92 ---- 2100 65.08 ---- 13.66
04/25 13:00 0.00 5.83 ---- 2033 65.64 ---- 13.65
04/25 14:00 0.00 5.75 ---- 1975 66.34 ---- 13.64
04/25 15:00 0.00 5.68 ---- 1924 66.94 ---- 13.50
04/25 16:00 0.00 5.61 ---- 1875 67.39 ---- 13.36
04/25 17:00 0.00 5.55 ---- 1833 30.20 ---- 13.35
04/25 18:00 0.01 5.50 ---- 1799 67.71 ---- 13.28
04/25 19:00 0.20 5.38 ---- 1718 67.75 ---- 13.16
04/25 20:00 0.04 5.43 ---- 1752 30.20 ---- 13.01
04/25 21:00 0.75 5.44 ---- 1758 30.20 ---- 12.90
04/25 22:00 0.08 5.49 ---- 1792 67.32 ---- 12.83
04/25 23:00 0.00 5.52 ---- 1813 67.23 ---- 12.77
Data processed at Sun 26Apr2026 04:35 GMT

NOTICE: If you are parsing this page

Please convert to using our Data API. Starting early 2026 we will be migrating to: https://water.usace.army.mil with modern pages rendered in JavaScript. When this migration completes you will no longer be able to scrape this page! CWMSDataAPI (CDA)

Timeseries IDs (TSIDs)

TSIDs used from left to right in the data table
WATT.Precip-Inc.Total.1Hour.1Hour.Ccp-Rev
WATT.Stage.Inst.1Hour.0.Ccp-Rev
WATT.Stage-Alt.Inst.1Hour.0.Ccp-Rev
WATT.Flow.Inst.1Hour.0.Ccp-Rev
WATT.Temp-Water.Inst.1Hour.0.Ccp-Rev
WATT.Volt-Battery.Inst.1Hour.0.Ccp-Rev
WATT.Volt-Battery Load.Inst.1Hour.0.Ccp-Rev

                            

All information presented herein is the property of the government of the United States of America and may be revised or deleted at any time without prior notice. Dissemination of this information without the expressed written consent of the Public Affairs Office, Tulsa District U.S. Army Corps of Engineers is strictly prohibited. These data are gathered electronically and, as presented, have NOT undergone any form of quality control. These data are NOT guaranteed to be valid or correct.